createdAt,value
2018-11-22T00:00:37.974Z,92.30
2018-11-22T00:03:06.603Z,92.45
2018-11-22T00:05:35.136Z,92.79
2018-11-22T00:08:02.873Z,93.08
2018-11-22T00:10:31.949Z,92.90
2018-11-22T00:13:00.066Z,92.16
2018-11-22T00:15:28.043Z,92.65
2018-11-22T00:17:56.944Z,92.31
2018-11-22T00:20:25.435Z,91.95
2018-11-22T00:22:53.936Z,91.68
2018-11-22T00:25:22.235Z,92.35
2018-11-22T00:27:50.374Z,92.79
2018-11-22T00:30:37.495Z,92.87
2018-11-22T00:33:06.138Z,93.03
2018-11-22T00:35:34.164Z,92.53
2018-11-22T00:38:01.923Z,92.72
2018-11-22T00:40:29.617Z,93.01
2018-11-22T00:42:57.772Z,92.66
2018-11-22T00:45:27.265Z,92.85
2018-11-22T00:47:54.949Z,92.81
2018-11-22T00:50:23.018Z,92.23
2018-11-22T00:52:51.929Z,91.85
2018-11-22T00:55:21.834Z,92.05
2018-11-22T00:57:50.743Z,92.70
2018-11-22T01:00:20.133Z,92.69
2018-11-22T01:02:47.751Z,92.36
2018-11-22T01:05:17.228Z,91.85
2018-11-22T01:07:45.978Z,91.82
2018-11-22T01:10:14.695Z,91.89
2018-11-22T01:12:42.591Z,92.37
2018-11-22T01:15:10.236Z,91.99
2018-11-22T01:17:38.823Z,91.69
2018-11-22T01:20:09.291Z,91.54
2018-11-22T01:22:37.036Z,92.25
2018-11-22T01:25:06.605Z,92.31
2018-11-22T01:27:35.171Z,92.20
2018-11-22T01:30:03.716Z,92.10
2018-11-22T01:32:31.809Z,91.98
2018-11-22T01:34:59.979Z,92.13
2018-11-22T01:37:28.046Z,92.10
2018-11-22T01:39:56.543Z,92.11
2018-11-22T01:42:24.546Z,92.43
2018-11-22T01:44:53.120Z,91.50
2018-11-22T01:47:21.600Z,91.25
2018-11-22T01:49:49.811Z,91.34
2018-11-22T01:52:18.174Z,91.10
2018-11-22T01:54:46.664Z,91.35
2018-11-22T01:57:15.091Z,91.52
2018-11-22T01:59:43.646Z,91.97
2018-11-22T02:02:12.095Z,91.08
2018-11-22T02:04:40.690Z,91.62
2018-11-22T02:07:09.176Z,91.63
2018-11-22T02:09:37.650Z,91.72
2018-11-22T02:12:05.727Z,91.64
2018-11-22T02:14:33.146Z,90.94
2018-11-22T02:17:01.664Z,90.62
2018-11-22T02:19:29.869Z,90.52
2018-11-22T02:21:57.845Z,90.98
2018-11-22T02:24:25.521Z,90.54
2018-11-22T02:26:53.300Z,90.38
2018-11-22T02:29:21.393Z,90.37
2018-11-22T02:31:49.841Z,90.53
2018-11-22T02:34:17.930Z,90.92
2018-11-22T02:36:46.419Z,91.15
2018-11-22T02:39:14.500Z,91.28
2018-11-22T02:41:43.007Z,91.32
2018-11-22T02:44:11.054Z,91.63
2018-11-22T02:46:39.233Z,92.23
2018-11-22T02:49:07.670Z,91.62
2018-11-22T02:51:35.896Z,91.96
2018-11-22T02:54:03.980Z,91.79
2018-11-22T02:56:32.430Z,91.45
2018-11-22T02:59:00.956Z,91.29
2018-11-22T03:01:29.431Z,90.80
2018-11-22T03:03:57.614Z,91.05
2018-11-22T03:06:26.195Z,91.35
2018-11-22T03:08:54.389Z,91.87
2018-11-22T03:11:22.868Z,91.65
2018-11-22T03:13:51.063Z,91.80
2018-11-22T03:16:19.245Z,92.05
2018-11-22T03:18:47.410Z,92.00
2018-11-22T03:21:15.069Z,92.02
2018-11-22T03:23:43.266Z,92.14
2018-11-22T03:26:11.434Z,92.15
2018-11-22T03:28:39.201Z,92.06
2018-11-22T03:31:07.356Z,91.69
2018-11-22T03:33:35.927Z,91.13
2018-11-22T03:36:04.541Z,91.24
2018-11-22T03:38:33.056Z,91.13
2018-11-22T03:41:01.121Z,91.32
2018-11-22T03:43:28.940Z,91.44
2018-11-22T03:45:56.563Z,91.86
2018-11-22T03:48:25.174Z,92.40
2018-11-22T03:50:53.358Z,92.28
2018-11-22T03:53:20.729Z,92.15
2018-11-22T03:55:48.497Z,91.89
2018-11-22T03:58:15.824Z,92.00
2018-11-22T04:00:43.624Z,91.91
2018-11-22T04:03:11.781Z,91.71
2018-11-22T04:05:40.261Z,91.89
2018-11-22T04:08:08.770Z,92.01
2018-11-22T04:10:36.857Z,92.41
2018-11-22T04:13:04.196Z,92.46
2018-11-22T04:15:32.780Z,91.76
2018-11-22T04:18:00.461Z,91.78
2018-11-22T04:20:30.471Z,91.54
2018-11-22T04:22:58.955Z,91.81
2018-11-22T04:25:26.731Z,91.64
2018-11-22T04:27:55.214Z,91.74
2018-11-22T04:30:42.904Z,91.83
2018-11-22T04:33:10.305Z,91.90
2018-11-22T04:35:38.786Z,91.52
2018-11-22T04:38:07.007Z,91.57
2018-11-22T04:40:35.287Z,91.64
2018-11-22T04:43:03.563Z,91.43
2018-11-22T04:45:32.079Z,91.13
2018-11-22T04:48:03.472Z,91.28
2018-11-22T04:50:33.525Z,91.92
2018-11-22T04:53:01.721Z,91.98
2018-11-22T04:55:29.950Z,91.86
2018-11-22T04:57:58.093Z,91.53
2018-11-22T05:00:26.412Z,91.85
2018-11-22T05:02:54.599Z,91.97
2018-11-22T05:05:24.064Z,92.10
2018-11-22T05:07:52.272Z,92.30
2018-11-22T05:10:39.469Z,92.15
2018-11-22T05:13:07.142Z,91.37
2018-11-22T05:15:35.670Z,91.54
2018-11-22T05:18:03.437Z,91.60
2018-11-22T05:20:32.032Z,92.03
2018-11-22T05:23:00.537Z,91.76
2018-11-22T05:25:29.065Z,91.19
2018-11-22T05:27:57.309Z,91.37
2018-11-22T05:30:27.471Z,91.37
2018-11-22T05:32:55.278Z,91.61
2018-11-22T05:35:23.546Z,91.79
2018-11-22T05:37:52.202Z,91.57
2018-11-22T05:40:21.637Z,91.84
2018-11-22T05:42:49.830Z,91.88
2018-11-22T05:45:18.841Z,91.63
2018-11-22T05:47:46.862Z,91.43
2018-11-22T05:50:15.630Z,91.07
2018-11-22T05:52:43.678Z,91.00
2018-11-22T05:55:12.374Z,91.15
2018-11-22T05:57:40.862Z,91.33
2018-11-22T06:00:13.447Z,91.42
2018-11-22T06:02:41.610Z,91.74
2018-11-22T06:05:10.959Z,91.54
2018-11-22T06:07:38.992Z,91.33
2018-11-22T06:10:09.683Z,91.73
2018-11-22T06:12:37.981Z,91.52
2018-11-22T06:15:07.034Z,91.33
2018-11-22T06:17:35.228Z,91.20
2018-11-22T06:20:03.111Z,91.25
2018-11-22T06:22:32.025Z,91.11
2018-11-22T06:25:03.711Z,91.12
2018-11-22T06:27:27.997Z,91.50
2018-11-22T06:29:56.507Z,91.81
2018-11-22T06:32:24.590Z,91.93
2018-11-22T06:34:52.752Z,92.22
2018-11-22T06:37:21.370Z,92.39
2018-11-22T06:39:49.127Z,92.63
2018-11-22T06:42:17.703Z,92.54
2018-11-22T06:44:45.518Z,91.86
2018-11-22T06:47:14.162Z,91.48
2018-11-22T06:49:41.874Z,91.50
2018-11-22T06:52:10.125Z,91.84
2018-11-22T06:54:38.209Z,91.84
2018-11-22T06:57:06.267Z,91.78
2018-11-22T06:59:34.048Z,91.91
2018-11-22T07:02:02.542Z,91.80
2018-11-22T07:04:30.431Z,91.76
2018-11-22T07:06:59.091Z,91.89
2018-11-22T07:09:27.686Z,91.40
2018-11-22T07:11:55.873Z,91.48
2018-11-22T07:14:24.545Z,91.21
2018-11-22T07:16:53.010Z,90.97
2018-11-22T07:19:21.257Z,90.24
2018-11-22T07:21:49.697Z,89.82
2018-11-22T07:24:18.196Z,89.90
2018-11-22T07:26:46.263Z,90.06
2018-11-22T07:29:14.861Z,90.31
2018-11-22T07:31:43.341Z,90.52
2018-11-22T07:34:11.518Z,90.33
2018-11-22T07:36:38.902Z,90.17
2018-11-22T07:39:08.057Z,90.18
2018-11-22T07:41:36.272Z,90.18
2018-11-22T07:44:04.347Z,90.22
2018-11-22T07:46:32.497Z,90.17
2018-11-22T07:49:00.717Z,90.00
2018-11-22T07:51:28.984Z,89.77
2018-11-22T07:53:56.987Z,89.63
2018-11-22T07:56:25.245Z,89.62
2018-11-22T07:58:53.311Z,89.25
2018-11-22T08:01:21.384Z,89.19
2018-11-22T08:03:49.227Z,89.22
2018-11-22T08:06:17.755Z,88.92
2018-11-22T08:08:46.251Z,88.76
2018-11-22T08:11:14.849Z,88.82
2018-11-22T08:13:42.913Z,88.72
2018-11-22T08:16:11.428Z,88.67
2018-11-22T08:18:40.096Z,88.61
2018-11-22T08:21:08.663Z,88.15
2018-11-22T08:23:37.161Z,88.09
2018-11-22T08:26:05.232Z,88.20
2018-11-22T08:28:33.726Z,87.99
2018-11-22T08:31:01.474Z,87.63
2018-11-22T08:33:29.881Z,87.24
2018-11-22T08:35:57.246Z,87.13
2018-11-22T08:38:25.831Z,86.80
2018-11-22T08:40:53.906Z,86.78
2018-11-22T08:43:21.953Z,86.66
2018-11-22T08:45:49.748Z,86.59
2018-11-22T08:48:17.858Z,86.60
2018-11-22T08:50:46.427Z,86.94
2018-11-22T08:53:14.916Z,86.15
2018-11-22T08:55:43.397Z,86.22
2018-11-22T08:58:11.055Z,85.15
2018-11-22T09:00:39.249Z,85.08
2018-11-22T09:03:06.512Z,84.81
2018-11-22T09:05:36.118Z,84.79
2018-11-22T09:08:04.302Z,84.55
2018-11-22T09:10:32.793Z,84.70
2018-11-22T09:13:01.897Z,84.39
2018-11-22T09:15:31.527Z,84.56
2018-11-22T09:17:58.782Z,84.59
2018-11-22T09:20:28.371Z,84.79
2018-11-22T09:22:56.473Z,84.71
2018-11-22T09:25:23.997Z,84.98
2018-11-22T09:27:51.682Z,84.30
2018-11-22T09:30:39.226Z,84.78
2018-11-22T09:33:07.695Z,84.76
2018-11-22T09:35:36.028Z,85.17
2018-11-22T09:38:04.549Z,85.13
2018-11-22T09:40:34.322Z,84.77
2018-11-22T09:43:02.574Z,85.12
2018-11-22T09:45:31.535Z,84.96
2018-11-22T09:47:59.630Z,85.58
2018-11-22T09:50:28.216Z,85.14
2018-11-22T09:53:00.179Z,85.81
2018-11-22T09:55:28.575Z,85.33
2018-11-22T09:57:56.615Z,85.51
2018-11-22T10:00:25.235Z,85.85
2018-11-22T10:02:52.708Z,84.76
2018-11-22T10:05:24.581Z,83.83
2018-11-22T10:07:52.805Z,83.23
2018-11-22T10:10:22.294Z,82.57
2018-11-22T10:12:50.448Z,83.03
2018-11-22T10:15:19.633Z,82.86
2018-11-22T10:17:47.297Z,82.23
2018-11-22T10:20:17.901Z,82.33
2018-11-22T10:22:46.741Z,82.92
2018-11-22T10:25:15.117Z,82.73
2018-11-22T10:27:43.301Z,83.00
2018-11-22T10:30:30.505Z,83.46
2018-11-22T10:32:59.922Z,83.08
2018-11-22T10:35:47.066Z,83.47
2018-11-22T10:38:15.217Z,83.52
2018-11-22T10:40:43.382Z,82.99
2018-11-22T10:43:11.458Z,83.07
2018-11-22T10:45:39.655Z,82.85
2018-11-22T10:48:09.467Z,82.08
2018-11-22T10:50:38.094Z,82.53
2018-11-22T10:53:06.049Z,82.80
2018-11-22T10:55:35.729Z,82.61
2018-11-22T10:58:03.973Z,82.27
2018-11-22T11:00:51.653Z,82.28
2018-11-22T11:03:39.211Z,82.62
2018-11-22T11:06:26.121Z,83.22
2018-11-22T11:08:54.762Z,83.17
2018-11-22T11:11:22.537Z,83.21
2018-11-22T11:13:50.712Z,83.00
2018-11-22T11:16:18.882Z,82.63
2018-11-22T11:18:47.403Z,81.84
2018-11-22T11:21:15.306Z,82.05
2018-11-22T11:23:43.902Z,82.12
2018-11-22T11:26:11.919Z,80.52
2018-11-22T11:28:40.515Z,79.09
2018-11-22T11:31:08.344Z,76.11
2018-11-22T11:33:36.366Z,74.29
2018-11-22T11:36:04.420Z,73.28
2018-11-22T11:38:32.913Z,73.52
2018-11-22T11:41:00.720Z,72.66
2018-11-22T11:43:28.032Z,73.43
2018-11-22T11:45:56.538Z,72.05
2018-11-22T11:48:24.985Z,71.68
2018-11-22T11:50:53.528Z,72.81
2018-11-22T11:53:27.106Z,71.90
2018-11-22T11:55:49.664Z,72.19
2018-11-22T11:58:17.337Z,70.72
2018-11-22T12:00:46.036Z,70.43
2018-11-22T12:03:14.207Z,70.32
2018-11-22T12:05:42.390Z,69.20
2018-11-22T12:08:11.089Z,68.49
2018-11-22T12:10:39.073Z,68.53
2018-11-22T12:13:07.339Z,68.94
2018-11-22T12:15:34.998Z,68.56
2018-11-22T12:18:02.667Z,67.83
2018-11-22T12:20:31.122Z,67.21
2018-11-22T12:22:59.448Z,66.44
2018-11-22T12:25:28.223Z,65.88
2018-11-22T12:27:57.340Z,65.58
2018-11-22T12:30:26.536Z,66.64
2018-11-22T12:33:13.826Z,65.44
2018-11-22T12:36:01.234Z,65.58
2018-11-22T12:38:47.938Z,65.51
2018-11-22T12:41:16.054Z,65.01
2018-11-22T12:43:43.837Z,66.46
2018-11-22T12:46:12.308Z,65.02
2018-11-22T12:48:41.277Z,62.94
2018-11-22T12:51:09.467Z,61.41
2018-11-22T12:53:37.966Z,60.01
2018-11-22T12:56:05.757Z,59.38
2018-11-22T12:58:33.841Z,58.17
2018-11-22T13:01:02.209Z,59.01
2018-11-22T13:03:30.671Z,59.92
2018-11-22T13:05:58.872Z,59.64
2018-11-22T13:08:27.071Z,59.85
2018-11-22T13:10:55.292Z,59.44
2018-11-22T13:13:23.389Z,60.60
2018-11-22T13:15:51.495Z,60.38
2018-11-22T13:18:19.959Z,61.46
2018-11-22T13:20:47.750Z,59.43
2018-11-22T13:23:16.334Z,60.00
2018-11-22T13:25:44.848Z,58.95
2018-11-22T13:28:12.898Z,59.88
2018-11-22T13:30:40.570Z,60.50
2018-11-22T13:33:08.748Z,61.75
2018-11-22T13:35:37.250Z,62.18
2018-11-22T13:38:05.000Z,62.79
2018-11-22T13:40:33.078Z,61.17
2018-11-22T13:43:01.554Z,58.55
2018-11-22T13:45:30.011Z,57.35
2018-11-22T13:47:58.744Z,56.73
2018-11-22T13:50:28.125Z,56.49
2018-11-22T13:53:20.475Z,55.69
2018-11-22T13:55:43.252Z,55.87
2018-11-22T13:58:11.759Z,56.49
2018-11-22T14:00:39.896Z,57.18
2018-11-22T14:03:08.404Z,57.92
2018-11-22T14:05:36.971Z,58.64
2018-11-22T14:08:04.651Z,58.33
2018-11-22T14:10:32.748Z,58.96
2018-11-22T14:13:01.181Z,60.61
2018-11-22T14:15:32.738Z,61.78
2018-11-22T14:18:19.503Z,61.45
2018-11-22T14:20:47.563Z,61.38
2018-11-22T14:23:16.018Z,62.27
2018-11-22T14:25:49.003Z,64.06
2018-11-22T14:28:13.019Z,66.16
2018-11-22T14:30:40.414Z,68.33
2018-11-22T14:33:08.260Z,69.04
2018-11-22T14:35:35.595Z,70.51
2018-11-22T14:38:03.037Z,71.47
2018-11-22T14:40:32.441Z,72.67
2018-11-22T14:43:00.950Z,73.73
2018-11-22T14:45:29.134Z,74.24
2018-11-22T14:47:58.211Z,74.28
2018-11-22T14:50:31.151Z,74.33
2018-11-22T14:53:21.293Z,74.35
2018-11-22T14:55:49.235Z,74.53
2018-11-22T14:58:17.012Z,74.48
2018-11-22T15:00:44.922Z,73.61
2018-11-22T15:03:13.500Z,73.28
2018-11-22T15:05:41.976Z,73.60
2018-11-22T15:08:29.079Z,73.88
2018-11-22T15:10:57.214Z,74.98
2018-11-22T15:13:25.681Z,76.14
2018-11-22T15:15:54.173Z,77.92
2018-11-22T15:18:22.367Z,78.67
2018-11-22T15:20:50.034Z,79.13
2018-11-22T15:23:18.335Z,79.02
2018-11-22T15:25:46.485Z,79.23
2018-11-22T15:28:14.654Z,80.46
2018-11-22T15:30:42.429Z,80.94
2018-11-22T15:33:10.538Z,81.86
2018-11-22T15:35:38.671Z,82.85
2018-11-22T15:38:06.566Z,82.82
2018-11-22T15:40:34.752Z,83.49
2018-11-22T15:43:03.457Z,84.05
2018-11-22T15:45:35.229Z,84.77
2018-11-22T15:48:00.235Z,85.22
2018-11-22T15:50:28.872Z,85.46
2018-11-22T15:52:57.497Z,85.85
2018-11-22T15:55:26.245Z,86.48
2018-11-22T15:57:56.299Z,87.19
2018-11-22T16:00:28.574Z,87.38
2018-11-22T16:02:57.649Z,86.99
2018-11-22T16:05:26.443Z,86.87
2018-11-22T16:07:54.542Z,86.49
2018-11-22T16:10:26.907Z,87.49
2018-11-22T16:13:12.755Z,87.27
2018-11-22T16:15:59.915Z,87.71
2018-11-22T16:18:27.434Z,87.76
2018-11-22T16:20:55.566Z,88.34
2018-11-22T16:23:23.614Z,88.68
2018-11-22T16:25:51.796Z,89.02
2018-11-22T16:28:19.549Z,89.41
2018-11-22T16:30:47.680Z,89.32
2018-11-22T16:33:15.728Z,89.37
2018-11-22T16:35:44.275Z,89.77
2018-11-22T16:38:12.430Z,89.98
2018-11-22T16:40:40.983Z,89.80
2018-11-22T16:43:08.655Z,89.68
2018-11-22T16:45:37.448Z,90.09
2018-11-22T16:48:07.636Z,90.39
2018-11-22T16:50:37.249Z,91.09
2018-11-22T16:53:05.996Z,90.99
2018-11-22T16:55:34.051Z,90.90
2018-11-22T16:58:02.673Z,90.91
2018-11-22T17:00:34.199Z,90.89
2018-11-22T17:03:03.607Z,91.42
2018-11-22T17:05:32.405Z,91.89
2018-11-22T17:08:01.211Z,92.52
2018-11-22T17:10:30.525Z,92.84
2018-11-22T17:12:59.300Z,93.04
2018-11-22T17:15:28.993Z,93.11
2018-11-22T17:17:57.889Z,92.60
2018-11-22T17:20:27.150Z,92.10
2018-11-22T17:22:55.295Z,92.23
2018-11-22T17:25:25.108Z,92.37
2018-11-22T17:27:55.225Z,92.47
2018-11-22T17:30:25.560Z,92.62
2018-11-22T17:32:54.115Z,92.84
2018-11-22T17:35:23.358Z,92.87
2018-11-22T17:37:52.794Z,92.70
2018-11-22T17:40:39.773Z,92.75
2018-11-22T17:43:08.028Z,92.89
2018-11-22T17:45:37.568Z,92.97
2018-11-22T17:48:06.043Z,93.38
2018-11-22T17:50:35.272Z,93.67
2018-11-22T17:53:03.890Z,93.95
2018-11-22T17:55:32.414Z,94.15
2018-11-22T17:58:00.273Z,94.35
2018-11-22T18:00:32.710Z,94.18
2018-11-22T18:03:02.275Z,93.60
2018-11-22T18:05:30.480Z,93.42
2018-11-22T18:07:58.618Z,93.31
2018-11-22T18:10:28.465Z,93.44
2018-11-22T18:12:57.462Z,93.77
2018-11-22T18:15:26.069Z,94.11
2018-11-22T18:17:54.130Z,94.43
2018-11-22T18:20:26.518Z,94.43
2018-11-22T18:22:56.129Z,94.35
2018-11-22T18:25:25.718Z,94.38
2018-11-22T18:27:54.041Z,94.21
2018-11-22T18:30:23.106Z,94.25
2018-11-22T18:33:10.411Z,94.39
2018-11-22T18:35:38.983Z,94.54
2018-11-22T18:38:07.309Z,94.85
2018-11-22T18:40:37.430Z,95.13
2018-11-22T18:43:05.821Z,95.40
2018-11-22T18:45:35.517Z,95.44
2018-11-22T18:48:04.469Z,95.47
2018-11-22T18:50:59.448Z,95.39
2018-11-22T18:53:28.020Z,95.41
2018-11-22T18:55:56.076Z,95.16
2018-11-22T18:58:24.069Z,95.11
2018-11-22T19:00:51.435Z,95.22
2018-11-22T19:03:19.904Z,95.45
2018-11-22T19:05:48.279Z,95.62
2018-11-22T19:08:15.945Z,95.72
2018-11-22T19:10:44.432Z,95.70
2018-11-22T19:13:13.030Z,95.61
2018-11-22T19:15:42.960Z,95.43
2018-11-22T19:18:12.088Z,95.32
2018-11-22T19:20:41.059Z,95.26
2018-11-22T19:23:09.336Z,95.23
2018-11-22T19:25:37.093Z,95.37
2018-11-22T19:28:05.459Z,95.63
2018-11-22T19:30:52.996Z,95.76
2018-11-22T19:33:21.108Z,95.33
2018-11-22T19:35:56.631Z,94.87
2018-11-22T19:38:25.215Z,95.03
2018-11-22T19:40:53.809Z,95.19
2018-11-22T19:43:22.265Z,95.23
2018-11-22T19:45:49.851Z,95.49
2018-11-22T19:48:18.026Z,95.68
2018-11-22T19:50:46.523Z,95.95
2018-11-22T19:53:15.525Z,95.98
2018-11-22T19:55:43.395Z,95.99
2018-11-22T19:58:12.529Z,95.63
2018-11-22T20:00:40.780Z,95.43
2018-11-22T20:03:09.864Z,95.27
2018-11-22T20:05:39.597Z,95.15
2018-11-22T20:08:08.917Z,94.94
2018-11-22T20:10:38.475Z,94.89
2018-11-22T20:13:06.579Z,95.01
2018-11-22T20:15:35.254Z,95.02
2018-11-22T20:18:04.264Z,95.08
2018-11-22T20:20:32.778Z,95.13
2018-11-22T20:23:01.065Z,95.34
2018-11-22T20:25:29.040Z,95.36
2018-11-22T20:27:57.228Z,95.14
2018-11-22T20:30:29.711Z,95.21
2018-11-22T20:32:58.299Z,95.45
2018-11-22T20:35:26.343Z,95.71
2018-11-22T20:37:54.733Z,95.75
2018-11-22T20:40:23.943Z,94.95
2018-11-22T20:42:52.013Z,94.53
2018-11-22T20:45:21.001Z,94.58
2018-11-22T20:47:50.604Z,94.67
2018-11-22T20:50:20.007Z,94.92
2018-11-22T20:52:48.210Z,95.01
2018-11-22T20:55:18.416Z,94.93
2018-11-22T20:57:47.766Z,94.94
2018-11-22T21:00:17.226Z,94.87
2018-11-22T21:02:45.260Z,94.64
2018-11-22T21:05:13.708Z,94.62
2018-11-22T21:07:42.139Z,94.82
2018-11-22T21:10:30.059Z,94.76
2018-11-22T21:12:58.228Z,94.70
2018-11-22T21:15:45.581Z,94.81
2018-11-22T21:18:14.233Z,94.85
2018-11-22T21:20:42.396Z,95.12
2018-11-22T21:23:10.190Z,95.45
2018-11-22T21:25:37.832Z,95.65
2018-11-22T21:28:06.101Z,95.78
2018-11-22T21:30:35.835Z,95.55
2018-11-22T21:33:03.604Z,95.45
2018-11-22T21:35:32.191Z,95.07
2018-11-22T21:38:01.412Z,94.86
2018-11-22T21:40:30.203Z,94.78
2018-11-22T21:42:58.260Z,94.77
2018-11-22T21:45:27.101Z,94.81
2018-11-22T21:47:54.827Z,94.94
2018-11-22T21:50:24.129Z,95.09
2018-11-22T21:52:52.332Z,95.15
2018-11-22T21:55:22.080Z,95.33
2018-11-22T21:57:50.209Z,95.21
2018-11-22T22:00:30.364Z,94.79
2018-11-22T22:03:00.179Z,94.70
2018-11-22T22:05:28.345Z,94.84
2018-11-22T22:07:56.549Z,94.76
2018-11-22T22:10:24.650Z,94.42
2018-11-22T22:12:52.683Z,94.22
2018-11-22T22:15:22.284Z,94.29
2018-11-22T22:17:50.302Z,94.40
2018-11-22T22:20:38.686Z,94.48
2018-11-22T22:23:13.279Z,94.61
2018-11-22T22:25:35.410Z,94.90
2018-11-22T22:28:03.765Z,95.01
2018-11-22T22:30:32.487Z,95.01
2018-11-22T22:33:02.234Z,95.03
2018-11-22T22:35:29.541Z,95.19
2018-11-22T22:37:57.299Z,94.78
2018-11-22T22:40:26.031Z,94.38
2018-11-22T22:42:55.508Z,94.08
2018-11-22T22:45:24.671Z,94.08
2018-11-22T22:47:53.431Z,94.17
2018-11-22T22:50:22.969Z,94.43
2018-11-22T22:52:52.378Z,94.51
2018-11-22T22:55:20.115Z,94.49
2018-11-22T22:57:47.437Z,94.45
2018-11-22T23:00:53.682Z,94.52
2018-11-22T23:03:22.200Z,94.41
2018-11-22T23:05:49.560Z,94.42
2018-11-22T23:08:17.205Z,94.42
2018-11-22T23:10:45.314Z,94.37
2018-11-22T23:13:13.795Z,94.08
2018-11-22T23:15:41.973Z,93.47
2018-11-22T23:18:10.051Z,93.39
2018-11-22T23:20:38.574Z,93.55
2018-11-22T23:23:06.791Z,93.65
2018-11-22T23:25:35.282Z,93.80
2018-11-22T23:28:03.411Z,93.96
2018-11-22T23:30:32.578Z,94.24
2018-11-22T23:33:01.698Z,93.90
2018-11-22T23:35:29.745Z,93.86
2018-11-22T23:37:58.317Z,93.97
2018-11-22T23:40:27.296Z,93.81
2018-11-22T23:42:55.409Z,93.68
2018-11-22T23:45:28.292Z,93.85
2018-11-22T23:47:57.148Z,94.08
2018-11-22T23:50:25.925Z,94.04
2018-11-22T23:52:55.479Z,93.19
2018-11-22T23:55:23.191Z,92.26
2018-11-22T23:57:51.037Z,92.50
